Piacenza San Damiano Air Base

LIMS · Emilia-Romagna, 意大利

METAR的历史 LIMS · Piacenza San Damiano Air Base

下面你可以看到过去几天的METARs。 选择年份以浏览从2007年开始的旧METAR。

2024年4月14日

时间 代码 天气 温度 能见度 天花板 METAR/SPECI
19:55
V
22 °C 10 km+ - 140° 140° 3 kt METAR LIMS 141755Z 14003KT CAVOK 22/19 Q1018 RMK FEW FEW200 VIS MIN 9999 WIND THR30 13002KT BLU
19:55
V
22 °C 10 km+ - 140° 140° 3 kt METAR LIMS 141755Z 14003KT CAVOK 22/19 Q1018
18:55
V
25 °C 10 km+ - 140° 140° 4 kt METAR LIMS 141655Z 14004KT CAVOK 25/19 Q1018
17:55
V
26 °C 10 km+ - 090° 090° 2 kt METAR LIMS 141555Z 09002KT CAVOK 26/18 Q1018
16:55
V
26 °C 10 km+ - 080° 080° 2 kt METAR LIMS 141455Z 08002KT CAVOK 26/18 Q1019
15:55
V
26 °C 10 km+ - 220° 220° 2 kt METAR LIMS 141355Z 22002KT CAVOK 26/19 Q1020
14:55
V
26 °C 10 km+ - 130° 130° 2 kt METAR LIMS 141255Z 13002KT CAVOK 26/19 Q1021
13:55
V
25 °C 10 km+ - 020° 020° 3 kt METAR LIMS 141155Z 02003KT CAVOK 25/19 Q1022
12:55
V
24 °C 10 km+ - 030° 030° 3 kt METAR LIMS 141055Z 03003KT CAVOK 24/18 Q1022
11:55
V
24 °C 10 km+ - 350° 350° 2 kt METAR LIMS 140955Z 35002KT CAVOK 24/18 Q1023
10:55
V
22 °C 10 km+ - 360° 360° 2 kt METAR LIMS 140855Z 36002KT CAVOK 22/17 Q1023
09:55
V
20 °C 10 km+ - 330° 330° 2 kt METAR LIMS 140755Z 33002KT CAVOK 20/17 Q1023
08:55
V
17 °C 10 km+ - 270° 270° 6 kt METAR LIMS 140655Z 27006KT CAVOK 17/16 Q1023
07:55
V
13 °C 10 km+ - 260° 260° 8 kt METAR LIMS 140555Z 26008KT CAVOK 13/13 Q1023

2024年4月13日

时间 代码 天气 温度 能见度 天花板 METAR/SPECI
19:55
V
21 °C 10 km+ - 120° 120° 1 kt METAR LIMS 131755Z 12001KT CAVOK 21/17 Q1024
18:55
V
24 °C 10 km+ - 120° 120° 4 kt METAR LIMS 131655Z 12004KT CAVOK 24/17 Q1024
17:55
V
25 °C 10 km+ - 090° 090° 4 kt METAR LIMS 131555Z 09004KT CAVOK 25/17 Q1024
16:55
V
25 °C 10 km+ - 090° 090° 5 kt METAR LIMS 131455Z 09005KT CAVOK 25/17 Q1024
15:55
V
25 °C 10 km+ - 080° 080° 4 kt METAR LIMS 131355Z 08004KT CAVOK 25/17 Q1025
14:55
V
24 °C 10 km+ - 090° 090° 4 kt METAR LIMS 131255Z 09004KT CAVOK 24/17 Q1026
13:55
V
24 °C 10 km+ - 120° 120° 4 kt METAR LIMS 131155Z 12004KT CAVOK 24/18 Q1026
12:55
V
23 °C 10 km+ - 060° 060° 4 kt METAR LIMS 131055Z 06004KT CAVOK 23/18 Q1027
11:55
V
22 °C 10 km+ - 070° 070° 3 kt METAR LIMS 130955Z 07003KT CAVOK 22/17 Q1027
10:55
V
20 °C 10 km+ - 280° 280° 1 kt METAR LIMS 130855Z 28001KT CAVOK 20/17 Q1027
09:55
V
18 °C 10 km+ - 300° 300° 4 kt METAR LIMS 130755Z 30004KT CAVOK 18/16 Q1027
08:55
V
16 °C 10 km+ - 290° 290° 4 kt METAR LIMS 130655Z 29004KT CAVOK 16/16 Q1027
07:55
V
12 °C 10 km+ - 260° 260° 5 kt METAR LIMS 130555Z 26005KT CAVOK 12/12 Q1027

2024年4月12日

时间 代码 天气 温度 能见度 天花板 METAR/SPECI
19:55
V
21 °C 10 km+ - 090° 090° 3 kt METAR LIMS 121755Z 09003KT CAVOK 21/18 Q1026
18:55
V
23 °C 10 km+ - 100° 100° 4 kt METAR LIMS 121655Z 10004KT CAVOK 23/17 Q1026
17:55
V
23 °C 10 km+ - 140° 140° 4 kt METAR LIMS 121555Z 14004KT CAVOK 23/16 Q1026
16:55
V
23 °C 10 km+ - 090° 090° 4 kt METAR LIMS 121455Z 09004KT CAVOK 23/16 Q1026
15:55
V
23 °C 10 km+ - 090° 090° 4 kt METAR LIMS 121355Z 09004KT CAVOK 23/16 Q1027
14:55
V
22 °C 10 km+ - 070° 070° 4 kt METAR LIMS 121255Z 07004KT CAVOK 22/17 Q1028
13:55
V
22 °C 10 km+ - 090° 090° 4 kt METAR LIMS 121155Z 09004KT CAVOK 22/17 Q1029
12:55
V
21 °C 10 km+ - 010° 010° 4 kt METAR LIMS 121055Z 01004KT CAVOK 21/17 Q1029
11:55
V
21 °C 10 km+ - 070° 070° 2 kt METAR LIMS 120955Z 07002KT CAVOK 21/16 Q1029
10:55
V
20 °C 10 km+ - 360° 360° 3 kt METAR LIMS 120855Z 36003KT CAVOK 20/15 Q1029
09:55
V
18 °C 10 km+ - 320° 320° 3 kt METAR LIMS 120755Z 32003KT CAVOK 18/15 Q1029
08:55
V
15 °C 10 km+ - 260° 260° 7 kt METAR LIMS 120655Z 26007KT CAVOK 15/15 Q1029
07:55
V
11 °C 10 km+ - 260° 260° 10 kt METAR LIMS 120555Z 26010KT CAVOK 11/11 Q1029
报告变更